Hebron, Indiana
Current Conditions -  °F | °C
As of 11:56 AM on Friday 19 Dec 2014 (Local Time) from KVPZ Reporting Station
Overcast Overcast  
Wind Chill: 23°   Ceiling: 2700
Heat Index: 31°   Visibility: 10mi
Dew Point: 24°   Wind: 8mph
Humidity: 76%   Direction: 290°WNW
Pressure: 30.27"   Gusts: NA
Location:  41.32°N, 87.2°W
Report Text: KVPZ 191756Z AUTO 29007KT 10SM OVC027 M01/M04 A3027 RMK AO2 SLP260 T10061044 11006 21022 58004 TSNO
Loading
Personal Weather Stations






























Interactive Weather Map New forecast layout! Learn more

10-Day Weather Forecast

Advertisements
Track Severe Weather on mobile